Time;durP1;ratioP1;P1;durP2;ratioP2;P2;SDS_P1;SDS_P2;PMS_P1;PMS_P2;Temp;Humidity;BMP_temperature;BMP_pressure;BME280_temperature;BME280_humidity;BME280_pressure;Samples;Min_cycle;Max_cycle;Signal;HPM_P1;HPM_P2
2023/10/02 00:02:41;;;;;;;17.80;5.90;;;;;;;14.66;100.00;101806.19;6243847;28;20045;-71
2023/10/02 00:05:50;;;;;;;10.85;4.43;;;;;;;14.63;100.00;101811.69;6247002;28;20049;-71
2023/10/02 00:08:53;;;;;;;;;;;;;;;14.60;100.00;101804.75;6255282;28;20050;-71
2023/10/02 00:11:54;;;;;;;13.95;4.80;;;;;;;14.59;100.00;101808.34;6254986;28;20058;-71
2023/10/02 00:14:55;;;;;;;16.20;4.82;;;;;;;14.56;100.00;101810.28;6254878;28;20061;-71
2023/10/02 00:17:57;;;;;;;16.42;5.55;;;;;;;14.54;100.00;101813.00;6254810;28;20041;-71
2023/10/02 00:24:16;;;;;;;14.07;4.95;;;;;;;14.54;100.00;101815.66;6254532;28;20046;-71
2023/10/02 00:27:21;;;;;;;14.55;4.57;;;;;;;14.53;100.00;101810.44;6254527;28;20081;-71
2023/10/02 00:30:30;;;;;;;13.13;4.70;;;;;;;14.51;100.00;101804.38;6254521;28;20049;-71
2023/10/02 00:33:32;;;;;;;14.07;4.93;;;;;;;14.49;100.00;101808.88;6254662;28;20046;-71
2023/10/02 00:36:33;;;;;;;14.73;4.68;;;;;;;14.50;100.00;101807.97;6254635;28;20068;-71
2023/10/02 00:39:36;;;;;;;14.88;5.28;;;;;;;14.51;100.00;101804.38;6254022;28;20050;-71
2023/10/02 00:42:38;;;;;;;15.50;5.78;;;;;;;14.50;100.00;101798.25;6254478;28;20058;-71
2023/10/02 00:45:38;;;;;;;18.42;5.05;;;;;;;14.51;100.00;101797.28;6254394;28;20057;-71
2023/10/02 00:48:40;;;;;;;14.45;4.30;;;;;;;14.49;100.00;101798.31;6253907;28;20084;-71
2023/10/02 00:51:40;;;;;;;16.83;4.82;;;;;;;14.47;100.00;101788.63;6243490;28;20061;-71
2023/10/02 00:54:44;;;;;;;14.95;4.88;;;;;;;14.47;100.00;101795.72;6252328;28;20053;-71
2023/10/02 00:57:46;;;;;;;13.07;4.70;;;;;;;14.48;100.00;101794.81;6253738;28;20738;-71
2023/10/02 01:00:50;;;;;;;16.38;5.13;;;;;;;14.44;100.00;101791.47;6253698;28;20056;-71
2023/10/02 01:04:08;;;;;;;15.32;4.93;;;;;;;14.47;100.00;101793.91;6253905;28;20052;-71
2023/10/02 01:07:11;;;;;;;12.05;4.95;;;;;;;14.46;100.00;101786.06;6253707;28;20053;-73
2023/10/02 01:10:23;;;;;;;13.13;4.75;;;;;;;14.45;100.00;101779.94;6253579;28;20050;-70
2023/10/02 01:13:29;;;;;;;11.25;4.38;;;;;;;14.43;100.00;101778.28;6253569;28;20049;-71
2023/10/02 01:16:30;;;;;;;13.88;4.53;;;;;;;14.42;100.00;101779.22;6253395;28;20361;-71
2023/10/02 01:19:52;;;;;;;15.57;4.90;;;;;;;14.43;100.00;101783.59;6253038;28;20052;-72
2023/10/02 01:23:11;;;;;;;15.32;5.60;;;;;;;14.42;100.00;101785.38;6253804;28;20059;-71
2023/10/02 01:26:18;;;;;;;12.48;4.65;;;;;;;14.42;100.00;101787.16;6253235;28;20045;-73
2023/10/02 01:29:20;;;;;;;13.13;4.85;;;;;;;14.39;100.00;101780.25;6253033;28;20057;-72
2023/10/02 01:32:21;;;;;;;12.75;5.10;;;;;;;14.42;100.00;101790.66;6253099;28;20049;-72
2023/10/02 01:35:23;;;;;;;16.27;4.70;;;;;;;14.41;100.00;101782.81;6253230;28;20045;-73
2023/10/02 01:38:29;;;;;;;14.27;4.70;;;;;;;14.42;100.00;101784.53;6252713;28;20127;-73
2023/10/02 01:41:32;;;;;;;18.88;5.07;;;;;;;14.42;100.00;101781.88;6252680;28;20442;-72
2023/10/02 01:44:54;;;;;;;13.38;4.93;;;;;;;14.40;100.00;101773.19;6252842;28;20049;-73
2023/10/02 01:47:55;;;;;;;13.25;5.55;;;;;;;14.37;100.00;101774.19;6252582;28;20488;-72
2023/10/02 01:51:15;;;;;;;13.70;5.10;;;;;;;14.35;100.00;101770.78;6252420;28;20136;-73
2023/10/02 01:54:16;;;;;;;12.57;4.57;;;;;;;14.37;100.00;101768.06;6252809;28;20060;-71
2023/10/02 01:57:24;;;;;;;18.17;5.20;;;;;;;14.37;100.00;101768.06;6242265;28;20342;-71
2023/10/02 02:00:26;;;;;;;12.70;4.97;;;;;;;14.36;100.00;101761.06;6248410;28;20092;-71
2023/10/02 02:03:28;;;;;;;12.68;4.32;;;;;;;14.37;100.00;101757.47;6252130;28;20053;-71
2023/10/02 02:06:30;;;;;;;14.43;4.53;;;;;;;14.35;100.00;101756.69;6252342;28;20057;-71
2023/10/02 02:09:37;;;;;;;12.95;4.70;;;;;;;14.32;100.00;101760.34;6248703;28;20380;-72
2023/10/02 02:12:45;;;;;;;12.15;4.20;;;;;;;14.29;100.00;101755.22;6244020;28;20132;-71
2023/10/02 02:15:51;;;;;;;15.65;4.93;;;;;;;14.27;100.00;101754.47;6252140;28;20327;-73
2023/10/02 02:18:56;;;;;;;13.48;4.95;;;;;;;14.26;100.00;101757.16;6291807;22;20107;-72
2023/10/02 02:21:57;;;;;;;16.10;5.15;;;;;;;14.26;100.00;101755.41;6276439;28;20053;-72
2023/10/02 02:24:59;;;;;;;16.52;5.00;;;;;;;14.26;100.00;101762.47;6276634;28;20059;-72
2023/10/02 02:28:06;;;;;;;15.30;4.82;;;;;;;14.25;100.00;101753.66;6276308;28;20045;-72
2023/10/02 02:31:21;;;;;;;13.45;5.00;;;;;;;14.25;100.00;101756.31;6276293;28;20052;-71
2023/10/02 02:34:29;;;;;;;13.60;4.53;;;;;;;14.26;100.00;101750.13;6276244;28;20048;-71
2023/10/02 02:37:32;;;;;;;12.07;4.63;;;;;;;14.27;100.00;101751.81;6276251;28;20059;-71
2023/10/02 02:40:33;;;;;;;13.48;4.38;;;;;;;14.26;100.00;101751.88;6266434;28;20448;-72
2023/10/02 02:43:38;;;;;;;14.52;4.40;;;;;;;14.25;100.00;101748.38;6273266;28;20352;-72
2023/10/02 02:46:53;;;;;;;10.45;4.30;;;;;;;14.25;100.00;101739.59;6275797;28;20063;-72
2023/10/02 02:49:58;;;;;;;10.15;4.05;;;;;;;14.25;100.00;101748.38;6275688;28;20108;-72
2023/10/02 02:56:18;;;;;;;13.90;4.78;;;;;;;14.23;100.00;101742.34;6275564;28;20060;-72
2023/10/02 02:59:22;;;;;;;14.05;4.55;;;;;;;14.25;100.00;101743.09;6275811;28;20045;-72
2023/10/02 03:02:23;;;;;;;14.88;4.85;;;;;;;14.26;100.00;101736.00;6275843;28;20049;-71
2023/10/02 03:05:37;;;;;;;13.18;4.30;;;;;;;14.27;100.00;101735.94;6275736;28;20053;-72
2023/10/02 03:08:39;;;;;;;11.85;4.10;;;;;;;14.27;100.00;101729.81;6275536;28;20060;-71
2023/10/02 03:11:41;;;;;;;13.63;4.50;;;;;;;14.31;100.00;101742.78;6264870;28;20049;-71
2023/10/02 03:14:44;;;;;;;14.55;4.60;;;;;;;14.33;100.00;101735.63;6274958;28;20471;-72
2023/10/02 03:17:46;;;;;;;14.60;4.78;;;;;;;14.33;100.00;101734.78;6275275;28;20060;-71
2023/10/02 03:20:49;;;;;;;16.63;4.05;;;;;;;14.35;100.00;101735.53;6275302;28;20049;-71
2023/10/02 03:23:53;;;;;;;14.07;4.65;;;;;;;14.34;100.00;101742.59;6275262;28;20055;-71
2023/10/02 03:26:56;;;;;;;11.90;4.45;;;;;;;14.36;100.00;101753.13;6275519;28;20057;-71
2023/10/02 03:29:58;;;;;;;13.23;4.15;;;;;;;14.36;100.00;101747.84;6275007;28;20052;-71
2023/10/02 03:33:00;;;;;;;12.45;4.68;;;;;;;14.36;100.00;101737.25;6275066;28;20045;-72
2023/10/02 03:36:08;;;;;;;13.95;4.63;;;;;;;14.35;100.00;101740.81;6275003;28;20453;-71
2023/10/02 03:39:23;;;;;;;14.77;4.50;;;;;;;14.34;100.00;101739.13;6274995;28;20045;-72
2023/10/02 03:42:30;;;;;;;12.68;4.43;;;;;;;14.37;100.00;101734.53;6275218;28;20048;-71
2023/10/02 03:45:38;;;;;;;12.80;4.18;;;;;;;14.38;100.00;101733.56;6275391;28;20049;-71
2023/10/02 03:48:41;;;;;;;12.63;4.50;;;;;;;14.38;100.00;101732.72;6275270;28;20053;-71
2023/10/02 03:51:44;;;;;;;16.40;4.07;;;;;;;14.41;100.00;101732.56;6275213;28;20048;-72
2023/10/02 03:54:46;;;;;;;15.60;4.97;;;;;;;14.41;100.00;101730.78;6274940;28;20459;-71
2023/10/02 03:57:52;;;;;;;14.13;4.47;;;;;;;14.47;100.00;101737.53;6262489;28;20060;-72
2023/10/02 04:00:56;;;;;;;15.60;5.03;;;;;;;14.48;100.00;101733.97;6259645;28;20053;-71
2023/10/02 04:04:19;;;;;;;11.25;4.40;;;;;;;14.51;100.00;101733.81;6255641;28;20046;-71
2023/10/02 04:07:20;;;;;;;12.50;4.57;;;;;;;14.52;100.00;101726.72;6274816;28;20456;-72
2023/10/02 04:10:24;;;;;;;12.07;4.60;;;;;;;14.54;100.00;101735.44;6274786;28;20049;-71
2023/10/02 04:13:29;;;;;;;12.98;4.55;;;;;;;14.53;100.00;101726.63;6274827;28;20048;-72
2023/10/02 04:16:31;;;;;;;14.77;4.60;;;;;;;14.51;100.00;101723.22;6257451;28;20135;-70
2023/10/02 04:19:33;;;;;;;16.02;4.53;;;;;;;14.49;100.00;101718.94;6248966;28;20045;-70
2023/10/02 04:22:36;;;;;;;14.77;5.05;;;;;;;14.47;100.00;101721.66;6249768;28;20345;-70
2023/10/02 04:25:42;;;;;;;13.88;5.00;;;;;;;14.44;100.00;101725.34;6251855;28;20266;-71
2023/10/02 04:28:49;;;;;;;17.63;4.70;;;;;;;14.42;100.00;101726.34;6251358;28;20288;-70
2023/10/02 04:32:11;;;;;;;15.35;4.70;;;;;;;14.42;100.00;101721.06;6242577;28;20453;-71
2023/10/02 04:42:09;;;;;;;14.20;5.05;;;;;;;14.35;100.00;101699.38;6240757;28;20354;-71
2023/10/02 04:45:20;;;;;;;10.70;4.45;;;;;;;14.32;100.00;101710.13;6241024;28;20042;-70
2023/10/02 04:48:27;;;;;;;12.82;4.90;;;;;;;14.31;100.00;101700.47;6249107;28;20068;-70
2023/10/02 04:51:28;;;;;;;11.70;4.32;;;;;;;14.30;100.00;101709.34;6245520;28;20055;-71
2023/10/02 04:54:30;;;;;;;11.23;4.15;;;;;;;14.30;100.00;101706.69;6270441;28;20044;-71
2023/10/02 04:57:34;;;;;;;15.45;4.70;;;;;;;14.28;100.00;101698.00;6278502;28;20135;-71
2023/10/02 05:00:38;;;;;;;13.25;4.60;;;;;;;14.28;100.00;101710.38;6252324;28;20052;-70
2023/10/02 05:03:49;;;;;;;15.48;4.70;;;;;;;14.29;100.00;101722.63;6241493;28;20063;-70
2023/10/02 05:06:55;;;;;;;16.75;5.45;;;;;;;14.28;100.00;101715.66;6242104;28;20100;-70
2023/10/02 05:09:55;;;;;;;15.07;5.15;;;;;;;14.29;100.00;101714.72;6239688;28;20581;-71
2023/10/02 05:12:57;;;;;;;12.07;4.55;;;;;;;14.26;100.00;101717.50;6241766;28;20053;-71
2023/10/02 05:16:07;;;;;;;11.70;5.18;;;;;;;14.25;100.00;101716.66;6240167;28;20045;-70
2023/10/02 05:19:14;;;;;;;11.38;4.53;;;;;;;14.25;100.00;101716.66;6239330;28;20254;-71
2023/10/02 05:22:16;;;;;;;16.38;4.57;;;;;;;14.24;100.00;101719.41;6241566;28;20052;-70
2023/10/02 05:25:18;;;;;;;13.60;4.80;;;;;;;14.24;100.00;101712.31;6239920;28;20050;-70
2023/10/02 05:28:19;;;;;;;15.45;4.05;;;;;;;14.23;100.00;101707.97;6241115;28;20049;-70
2023/10/02 05:31:21;;;;;;;15.23;4.43;;;;;;;14.22;100.00;101703.63;6235962;28;20042;-71
2023/10/02 05:34:24;;;;;;;11.30;4.20;;;;;;;14.22;100.00;101708.91;6228573;28;20054;-71
2023/10/02 05:37:30;;;;;;;15.35;4.72;;;;;;;14.24;100.00;101716.75;6238181;28;20175;-71
2023/10/02 05:40:38;;;;;;;12.38;3.83;;;;;;;14.24;100.00;101708.81;6259938;28;20037;-71
2023/10/02 05:43:55;;;;;;;10.50;3.42;;;;;;;14.27;100.00;101709.50;6266469;28;20052;-72
2023/10/02 05:47:04;;;;;;;15.60;5.20;;;;;;;14.29;100.00;101720.84;6277583;28;20056;-72
2023/10/02 05:50:09;;;;;;;11.20;4.00;;;;;;;14.33;100.00;101724.19;6268024;28;20073;-72
2023/10/02 05:53:11;;;;;;;10.85;4.53;;;;;;;14.36;100.00;101727.53;6270836;28;20048;-72
2023/10/02 05:56:13;;;;;;;13.68;4.72;;;;;;;14.39;100.00;101729.13;6273801;28;20048;-72
2023/10/02 05:59:24;;;;;;;19.20;5.45;;;;;;;14.39;100.00;101724.69;6262377;28;20433;-72
2023/10/02 06:02:26;;;;;;;14.82;4.82;;;;;;;14.40;100.00;101734.38;6268626;28;20056;-72
2023/10/02 06:05:29;;;;;;;13.30;4.15;;;;;;;14.43;100.00;101731.53;6256428;28;20131;-72
2023/10/02 06:08:33;;;;;;;14.35;4.32;;;;;;;14.47;100.00;101746.31;6251744;28;20060;-72
2023/10/02 06:11:59;;;;;;;13.90;4.40;;;;;;;14.52;100.00;101748.75;6256360;28;20045;-70
2023/10/02 06:14:56;;;;;;;12.65;4.80;;;;;;;14.58;100.00;101742.25;6251187;28;20045;-72
2023/10/02 06:17:58;;;;;;;10.13;3.90;;;;;;;14.64;100.00;101744.59;6250485;28;20057;-71
2023/10/02 06:21:01;;;;;;;13.25;5.28;;;;;;;14.69;100.00;101739.91;6249450;28;20050;-71
2023/10/02 06:24:02;;;;;;;11.80;4.85;;;;;;;14.75;100.00;101739.56;6268114;28;20049;-71
2023/10/02 06:27:07;;;;;;;10.65;4.22;;;;;;;14.84;100.00;101746.13;6268675;28;20056;-71
2023/10/02 06:30:16;;;;;;;18.13;5.00;;;;;;;14.89;100.00;101737.00;6276462;28;20187;-70
2023/10/02 06:33:21;;;;;;;13.65;4.53;;;;;;;14.95;100.00;101741.13;6276411;28;20417;-74
2023/10/02 06:36:24;;;;;;;13.93;5.22;;;;;;;15.02;100.00;101752.19;6274466;28;20056;-78
2023/10/02 06:39:26;;;;;;;13.02;5.10;;;;;;;15.04;100.00;101743.25;6262376;28;20072;-78
2023/10/02 06:42:28;;;;;;;18.13;5.50;;;;;;;15.11;100.00;101743.75;6263885;28;20188;-75
2023/10/02 06:45:30;;;;;;;12.20;4.90;;;;;;;15.15;100.00;101748.78;6263237;28;20456;-77
2023/10/02 06:48:32;;;;;;;13.48;4.40;;;;;;;15.19;100.00;101749.47;6269123;28;20175;-77
2023/10/02 06:51:35;;;;;;;13.77;4.60;;;;;;;15.23;100.00;101754.50;6241452;28;20049;-77
2023/10/02 06:54:42;;;;;;;13.35;4.90;;;;;;;15.26;100.00;101747.31;6238371;28;20053;-73
2023/10/02 06:57:49;;;;;;;16.80;5.35;;;;;;;15.29;100.00;101744.50;6246601;28;20126;-71
2023/10/02 07:00:55;;;;;;;14.15;4.80;;;;;;;15.31;100.00;101751.44;6258190;28;20089;-72
2023/10/02 07:04:08;;;;;;;14.70;4.72;;;;;;;15.34;100.00;101743.28;6266654;28;20045;-72
2023/10/02 07:07:12;;;;;;;10.15;3.90;;;;;;;15.36;100.00;101749.38;6251681;28;20052;-71
2023/10/02 07:10:13;;;;;;;11.90;5.03;;;;;;;15.40;100.00;101748.25;6246224;28;20053;-72
2023/10/02 07:13:20;;;;;;;15.15;4.93;;;;;;;15.45;100.00;101748.84;6257943;28;20049;-72
2023/10/02 07:16:22;;;;;;;15.10;5.55;;;;;;;15.50;100.00;101753.88;6246849;28;20146;-71
2023/10/02 07:19:38;;;;;;;12.32;4.78;;;;;;;15.53;100.00;101753.66;6248320;28;20128;-72
2023/10/02 07:22:43;;;;;;;13.65;5.13;;;;;;;15.61;100.00;101747.94;6256815;28;20442;-72
2023/10/02 07:25:50;;;;;;;12.60;4.55;;;;;;;15.66;100.00;101745.91;6259201;28;20179;-72
2023/10/02 07:28:51;;;;;;;14.02;4.95;;;;;;;15.71;100.00;101739.41;6263243;28;20131;-71
2023/10/02 07:31:53;;;;;;;15.60;5.25;;;;;;;15.78;100.00;101747.84;6259113;28;20069;-72
2023/10/02 07:34:55;;;;;;;11.95;4.68;;;;;;;15.80;100.00;101740.63;6265862;28;20052;-73
2023/10/02 07:38:01;;;;;;;15.48;4.55;;;;;;;15.87;100.00;101743.78;6274916;28;20072;-74
2023/10/02 07:41:07;;;;;;;20.33;8.30;;;;;;;15.91;100.00;101747.97;6262471;28;20200;-72
2023/10/02 07:44:09;;;;;;;15.48;5.28;;;;;;;15.91;100.00;101751.47;6274941;28;20136;-73
2023/10/02 07:47:16;;;;;;;15.95;5.63;;;;;;;15.95;100.00;101755.63;6274880;28;20591;-72
2023/10/02 07:50:24;;;;;;;15.88;5.05;;;;;;;15.99;100.00;101751.00;6250421;28;20189;-72
2023/10/02 07:53:38;;;;;;;16.45;4.45;;;;;;;16.04;100.00;101738.31;6258605;28;20060;-72
2023/10/02 07:56:41;;;;;;;12.77;4.85;;;;;;;16.12;100.00;101741.34;6271822;28;20061;-73
2023/10/02 07:59:43;;;;;;;11.90;4.60;;;;;;;16.16;100.00;101739.38;6275426;28;20083;-73
2023/10/02 08:02:45;;;;;;;14.95;5.35;;;;;;;16.21;100.00;101729.31;6269140;28;20045;-72
2023/10/02 08:05:46;;;;;;;15.43;5.28;;;;;;;16.27;100.00;101728.97;6262740;28;20054;-72
2023/10/02 08:09:35;;;;;;;16.13;5.38;;;;;;;16.35;100.00;101726.69;6270064;28;20365;-72
2023/10/02 08:12:29;;;;;;;11.15;4.35;;;;;;;16.46;100.00;101728.69;6230123;28;20135;-72
2023/10/02 08:15:32;;;;;;;14.13;4.93;;;;;;;16.47;100.00;101730.38;6230208;28;20054;-72
2023/10/02 08:18:55;;;;;;;18.60;5.40;;;;;;;16.51;100.00;101737.19;6290010;22;20041;-70
2023/10/02 08:21:55;;;;;;;12.00;5.18;;;;;;;16.55;100.00;101730.75;6253918;28;20041;-71
2023/10/02 08:24:58;;;;;;;13.43;4.68;;;;;;;16.62;100.00;101725.91;6239259;28;20057;-68
2023/10/02 08:28:00;;;;;;;14.35;5.10;;;;;;;16.76;100.00;101733.03;6262340;28;20071;-69
2023/10/02 08:31:02;;;;;;;15.20;5.28;;;;;;;16.87;100.00;101725.25;6254503;28;20053;-68
2023/10/02 08:34:09;;;;;;;14.85;4.80;;;;;;;16.97;100.00;101719.22;6254462;28;20363;-70
2023/10/02 08:37:12;;;;;;;13.88;4.47;;;;;;;17.13;100.00;101721.75;6254630;28;20053;-70
2023/10/02 08:40:15;;;;;;;19.08;5.15;;;;;;;17.27;100.00;101728.81;6253295;28;20100;-70
2023/10/02 08:43:19;;;;;;;15.50;4.40;;;;;;;17.39;100.00;101725.34;6254919;28;20057;-70
2023/10/02 08:46:21;;;;;;;15.60;5.05;;;;;;;17.49;100.00;101717.63;6254295;28;20049;-69
2023/10/02 08:49:25;;;;;;;17.85;4.93;;;;;;;17.57;100.00;101725.06;6261961;28;20353;-70
2023/10/02 08:52:38;;;;;;;13.75;4.97;;;;;;;17.63;100.00;101722.00;6273756;28;20052;-69
2023/10/02 08:55:51;;;;;;;12.35;4.90;;;;;;;17.80;100.00;101716.41;6278712;28;20049;-67
2023/10/02 09:02:14;;;;;;;15.13;5.28;;;;;;;17.99;100.00;101711.56;6278250;28;20140;-70
2023/10/02 09:05:17;;;;;;;17.08;5.25;;;;;;;18.03;100.00;101714.81;6273899;28;20084;-70
2023/10/02 09:08:21;;;;;;;17.70;5.70;;;;;;;18.22;100.00;101712.63;6270169;28;20060;-70
2023/10/02 09:11:34;;;;;;;13.50;4.82;;;;;;;18.40;100.00;101712.28;6277135;28;20049;-70
2023/10/02 09:14:41;;;;;;;16.77;5.10;;;;;;;18.36;100.00;101706.31;6267037;28;20417;-70
2023/10/02 09:17:44;;;;;;;14.38;5.45;;;;;;;18.47;100.00;101709.06;6266861;28;20180;-70
2023/10/02 09:20:53;;;;;;;16.02;4.68;;;;;;;18.57;100.00;101711.06;6271453;28;20049;-70
2023/10/02 09:24:00;;;;;;;14.68;4.72;;;;;;;18.70;100.00;101714.56;6249804;28;20053;-70
2023/10/02 09:30:21;;;;;;;14.70;5.15;;;;;;;18.82;100.00;101712.84;6249374;28;20068;-69
2023/10/02 09:33:23;;;;;;;17.05;5.57;;;;;;;18.97;100.00;101709.06;6242127;28;20053;-70
2023/10/02 09:36:36;;;;;;;13.77;5.20;;;;;;;19.04;100.00;101710.31;6239823;28;20049;-72
2023/10/02 09:39:38;;;;;;;17.25;5.35;;;;;;;19.09;100.00;101710.81;6246242;28;20068;-70
2023/10/02 09:42:45;;;;;;;17.33;4.80;;;;;;;19.16;100.00;101703.22;6259188;28;20056;-70
2023/10/02 09:45:49;;;;;;;15.75;4.95;;;;;;;19.33;100.00;101705.47;6258606;28;20139;-70
2023/10/02 09:49:03;;;;;;;14.18;5.03;;;;;;;19.39;100.00;101698.81;6255459;28;20049;-71
2023/10/02 09:52:16;;;;;;;13.10;4.80;;;;;;;19.46;100.00;101700.06;6258089;28;20461;-70
2023/10/02 09:55:33;;;;;;;13.27;5.30;;;;;;;19.46;100.00;101698.25;6240722;28;20052;-74
2023/10/02 09:58:47;;;;;;;13.20;4.57;;;;;;;19.54;100.00;101679.03;6241113;28;20144;-71
2023/10/02 10:05:46;;;;;;;16.88;5.30;;;;;;;19.88;100.00;101679.97;6240878;28;20075;-73
2023/10/02 10:09:25;;;;;;;17.60;6.10;;;;;;;19.89;100.00;101675.47;6240860;28;20054;-70
2023/10/02 10:12:50;;;;;;;;;;;;;;;19.88;100.00;101674.63;6247166;28;20044;-70
2023/10/02 10:16:30;;;;;;;20.17;5.85;;;;;;;19.92;100.00;101681.41;6243346;28;20206;-74
2023/10/02 10:19:33;;;;;;;12.55;4.63;;;;;;;19.92;100.00;101667.22;6240761;28;20151;-70
2023/10/02 10:22:35;;;;;;;14.32;4.75;;;;;;;19.99;100.00;101677.31;6248161;28;20046;-70
2023/10/02 10:25:50;;;;;;;16.55;5.40;;;;;;;20.12;100.00;101674.53;6245621;28;20048;-70
2023/10/02 10:28:53;;;;;;;14.88;5.25;;;;;;;20.31;100.00;101681.09;6243276;28;20050;-70
2023/10/02 10:31:55;;;;;;;14.32;4.68;;;;;;;20.58;100.00;101676.25;6243577;28;20386;-71
2023/10/02 10:35:14;;;;;;;14.18;4.95;;;;;;;20.72;100.00;101675.13;6241356;28;20053;-70
2023/10/02 10:38:36;;;;;;;18.80;5.22;;;;;;;20.71;100.00;101676.06;6239121;28;20114;-73
2023/10/02 10:41:40;;;;;;;15.48;4.88;;;;;;;20.65;100.00;101665.88;6239143;28;20128;-71
2023/10/02 10:44:52;;;;;;;14.90;5.55;;;;;;;20.64;100.00;101666.88;6242941;28;20049;-71
2023/10/02 10:47:53;;;;;;;15.48;5.38;;;;;;;20.70;100.00;101664.53;6238490;28;20125;-70
2023/10/02 10:51:00;;;;;;;19.25;5.43;;;;;;;20.73;100.00;101652.75;6238538;28;20048;-71
2023/10/02 10:54:19;;;;;;;17.05;4.90;;;;;;;20.83;100.00;101650.19;6239573;28;20104;-69
2023/10/02 10:57:22;;;;;;;15.40;5.13;;;;;;;20.93;100.00;101659.13;6239447;28;20119;-70
2023/10/02 11:00:31;;;;;;;13.07;5.18;;;;;;;20.99;100.00;101666.66;6236970;28;20045;-69
2023/10/02 11:03:34;;;;;;;11.95;4.53;;;;;;;21.13;100.00;101652.16;6238055;28;20358;-69
2023/10/02 11:06:44;;;;;;;9.77;3.92;;;;;;;21.19;100.00;101652.47;6238527;28;20049;-69
2023/10/02 11:10:14;;;;;;;13.05;4.53;;;;;;;21.15;100.00;101651.03;6239289;28;20073;-72
2023/10/02 11:13:24;;;;;;;16.95;5.32;;;;;;;21.09;100.00;101656.06;6238180;28;20088;-72
2023/10/02 11:16:31;;;;;;;17.55;4.90;;;;;;;21.10;100.00;101644.38;6250742;28;20361;-74
2023/10/02 11:19:35;;;;;;;12.25;4.35;;;;;;;20.99;100.00;101643.44;6250535;28;20057;-76
2023/10/02 11:22:49;;;;;;;12.25;4.78;;;;;;;20.87;100.00;101644.47;6259605;28;20072;-78
2023/10/02 11:25:51;;;;;;;12.68;5.38;;;;;;;20.80;100.00;101650.44;6244617;28;20054;-72
2023/10/02 11:28:55;;;;;;;15.60;5.55;;;;;;;20.86;100.00;101647.28;6225923;28;20053;-74
2023/10/02 11:32:19;;;;;;;13.15;4.90;;;;;;;20.83;100.00;101640.34;6244723;28;20449;-73
2023/10/02 11:35:20;;;;;;;15.30;5.20;;;;;;;20.84;100.00;101636.69;6238644;28;20064;-72
2023/10/02 11:38:24;;;;;;;12.98;5.03;;;;;;;20.88;100.00;101635.47;6242979;28;20046;-74
2023/10/02 11:41:27;;;;;;;14.52;4.85;;;;;;;20.88;100.00;101635.47;6239419;28;20346;-72
2023/10/02 11:44:28;;;;;;;13.13;5.50;;;;;;;20.92;100.00;101638.72;6236826;28;20339;-70
2023/10/02 11:47:30;;;;;;;13.93;5.03;;;;;;;20.91;100.00;101632.53;6238486;28;20057;-70
2023/10/02 11:50:31;;;;;;;18.50;5.88;;;;;;;20.92;100.00;101633.38;6242225;28;20577;-70
2023/10/02 11:53:34;;;;;;;16.90;4.95;;;;;;;20.99;100.00;101645.28;6239566;28;20049;-73
2023/10/02 11:56:38;;;;;;;15.82;5.43;;;;;;;20.90;100.00;101649.56;6237469;28;20046;-73
2023/10/02 11:59:47;;;;;;;14.90;5.00;;;;;;;20.90;100.00;101641.53;6238851;28;20054;-75
2023/10/02 12:02:49;;;;;;;14.68;4.95;;;;;;;20.85;100.00;101643.75;6236538;28;20129;-73
2023/10/02 12:05:50;;;;;;;13.10;4.78;;;;;;;20.88;100.00;101637.28;6238541;28;20052;-72
2023/10/02 12:08:56;;;;;;;13.85;4.63;;;;;;;20.86;100.00;101633.91;6237529;28;20129;-72
2023/10/02 12:11:58;;;;;;;11.75;4.93;;;;;;;20.83;100.00;101626.97;6242402;28;20042;-72
2023/10/02 12:14:59;;;;;;;16.48;5.65;;;;;;;20.97;100.00;101626.69;6237087;28;20045;-71
2023/10/02 12:18:00;;;;;;;15.07;5.75;;;;;;;21.00;100.00;101625.59;6237147;28;20452;-71
2023/10/02 12:21:02;;;;;;;15.93;5.10;;;;;;;21.04;100.00;101632.38;6241473;28;20168;-74
2023/10/02 12:24:07;;;;;;;14.05;5.45;;;;;;;21.05;100.00;101627.88;6262376;28;20053;-74
2023/10/02 12:27:12;;;;;;;16.10;5.40;;;;;;;21.09;100.00;101623.97;6249609;28;20053;-74
2023/10/02 12:30:14;;;;;;;15.15;5.10;;;;;;;21.05;100.00;101626.06;6249459;28;20080;-74
2023/10/02 12:33:16;;;;;;;14.18;5.07;;;;;;;21.08;100.00;101614.25;6249787;28;20054;-72
2023/10/02 12:36:19;;;;;;;14.02;5.05;;;;;;;21.04;100.00;101605.66;6249379;28;20057;-76
2023/10/02 12:39:26;;;;;;;15.75;4.65;;;;;;;21.00;100.00;101612.22;6249371;28;20445;-75
2023/10/02 12:42:27;;;;;;;14.82;5.05;;;;;;;21.00;100.00;101606.88;6249183;28;20349;-73
2023/10/02 12:45:34;;;;;;;14.35;5.05;;;;;;;20.99;100.00;101605.19;6249495;28;20045;-74
2023/10/02 12:48:36;;;;;;;17.33;5.32;;;;;;;20.96;100.00;101598.25;6252938;28;20176;-73
2023/10/02 12:51:38;;;;;;;12.82;4.53;;;;;;;20.95;100.00;101591.22;6253958;28;20369;-73
2023/10/02 12:54:42;;;;;;;14.57;5.10;;;;;;;20.98;100.00;101592.78;6253750;28;20050;-72
2023/10/02 12:57:43;;;;;;;14.65;4.97;;;;;;;20.95;100.00;101587.72;6253962;28;20053;-74
2023/10/02 13:00:44;;;;;;;13.80;4.93;;;;;;;20.97;100.00;101586.59;6253125;28;20346;-74
2023/10/02 13:03:46;;;;;;;11.68;4.88;;;;;;;20.95;100.00;101582.38;6253743;28;20053;-73
2023/10/02 13:06:47;;;;;;;16.35;6.18;;;;;;;20.91;100.00;101584.44;6253778;28;20357;-73
2023/10/02 13:09:50;;;;;;;17.30;6.03;;;;;;;20.94;100.00;101586.03;6243319;28;20054;-73
2023/10/02 13:12:52;;;;;;;22.55;5.00;;;;;;;20.93;100.00;101576.28;6241784;28;20334;-73
2023/10/02 13:15:53;;;;;;;14.55;5.07;;;;;;;20.92;100.00;101580.78;6234120;28;20354;-71
2023/10/02 13:18:55;;;;;;;15.88;5.30;;;;;;;20.97;100.00;101577.72;6228782;28;20056;-71
2023/10/02 13:21:58;;;;;;;15.23;4.68;;;;;;;20.95;100.00;101579.69;6254040;28;20037;-71
2023/10/02 13:25:04;;;;;;;15.00;5.53;;;;;;;20.93;100.00;101577.13;6262483;28;20108;-73
2023/10/02 13:28:05;;;;;;;17.98;5.57;;;;;;;20.93;100.00;101571.78;6253168;28;20050;-71
2023/10/02 13:31:12;;;;;;;15.90;4.65;;;;;;;20.92;100.00;101574.59;6253143;28;20050;-71
2023/10/02 13:34:14;;;;;;;15.48;5.68;;;;;;;20.98;100.00;101576.75;6253423;28;20089;-71
2023/10/02 13:37:16;;;;;;;15.27;4.65;;;;;;;21.07;100.00;101575.97;6253063;28;20476;-71
2023/10/02 13:40:26;;;;;;;16.98;4.95;;;;;;;21.11;100.00;101572.06;6253031;28;20326;-71
2023/10/02 13:43:27;;;;;;;;;;;;;;;21.11;100.00;101566.72;6253653;28;20041;-71
2023/10/02 13:46:29;;;;;;;15.27;5.03;;;;;;;21.08;100.00;101564.31;6252691;28;20303;-71
2023/10/02 13:49:30;;;;;;;12.57;5.25;;;;;;;21.06;100.00;101555.56;6252690;28;20274;-73
2023/10/02 13:52:32;;;;;;;17.95;5.43;;;;;;;21.10;100.00;101565.03;6252568;28;20057;-70
2023/10/02 13:55:35;;;;;;;14.80;4.30;;;;;;;21.16;100.00;101558.31;6252727;28;20049;-70
2023/10/02 13:58:38;;;;;;;20.27;6.55;;;;;;;21.23;100.00;101556.81;6252002;28;20049;-73
2023/10/02 14:01:40;;;;;;;16.35;5.63;;;;;;;21.34;100.00;101551.41;6252223;28;20357;-70
2023/10/02 14:04:41;;;;;;;15.10;5.57;;;;;;;21.41;100.00;101549.91;6243459;28;20053;-70
2023/10/02 14:07:43;;;;;;;12.98;5.00;;;;;;;21.43;100.00;101547.94;6227673;28;20046;-70
2023/10/02 14:10:47;;;;;;;11.88;4.75;;;;;;;21.39;100.00;101543.88;6246419;28;20059;-70
2023/10/02 14:13:49;;;;;;;14.93;5.38;;;;;;;21.34;100.00;101542.56;6262760;28;20132;-70
2023/10/02 14:16:50;;;;;;;13.13;5.35;;;;;;;21.26;100.00;101543.19;6277032;28;20048;-70
2023/10/02 14:19:52;;;;;;;13.73;4.55;;;;;;;21.19;100.00;101534.84;6276347;28;20429;-71
2023/10/02 14:22:53;;;;;;;14.80;4.88;;;;;;;21.14;100.00;101529.03;6261629;28;20052;-72
2023/10/02 14:25:56;;;;;;;11.85;4.63;;;;;;;21.08;100.00;101523.38;6259582;28;20049;-71
2023/10/02 14:29:00;;;;;;;16.65;4.82;;;;;;;21.05;100.00;101523.66;6267962;28;20048;-72